sensor_id;sensor_type;location;lat;lon;timestamp;P1;durP1;ratioP1;P2;durP2;ratioP2
47335;SDS011;33068;51.990;5.926;2023-01-08T00:00:56;2.08;;;1.60;;
47335;SDS011;33068;51.990;5.926;2023-01-08T00:03:23;4.18;;;1.80;;
47335;SDS011;33068;51.990;5.926;2023-01-08T00:05:50;6.28;;;2.08;;
47335;SDS011;33068;51.990;5.926;2023-01-08T00:08:17;3.83;;;1.60;;
47335;SDS011;33068;51.990;5.926;2023-01-08T00:10:45;3.97;;;1.90;;
47335;SDS011;33068;51.990;5.926;2023-01-08T00:13:20;1.80;;;1.60;;
47335;SDS011;33068;51.990;5.926;2023-01-08T00:15:49;2.75;;;1.85;;
47335;SDS011;33068;51.990;5.926;2023-01-08T00:18:16;2.08;;;1.88;;
47335;SDS011;33068;51.990;5.926;2023-01-08T00:20:44;3.22;;;1.80;;
47335;SDS011;33068;51.990;5.926;2023-01-08T00:23:12;3.90;;;1.90;;
47335;SDS011;33068;51.990;5.926;2023-01-08T00:25:39;5.03;;;2.08;;
47335;SDS011;33068;51.990;5.926;2023-01-08T00:28:06;2.38;;;1.70;;
47335;SDS011;33068;51.990;5.926;2023-01-08T00:30:33;3.58;;;1.88;;
47335;SDS011;33068;51.990;5.926;2023-01-08T00:33:04;2.92;;;1.95;;
47335;SDS011;33068;51.990;5.926;2023-01-08T00:35:32;4.00;;;1.98;;
47335;SDS011;33068;51.990;5.926;2023-01-08T00:37:59;2.83;;;2.08;;
47335;SDS011;33068;51.990;5.926;2023-01-08T00:40:26;3.15;;;1.95;;
47335;SDS011;33068;51.990;5.926;2023-01-08T00:42:53;3.97;;;2.20;;
47335;SDS011;33068;51.990;5.926;2023-01-08T00:45:20;3.60;;;1.83;;
47335;SDS011;33068;51.990;5.926;2023-01-08T00:47:47;3.78;;;2.35;;
47335;SDS011;33068;51.990;5.926;2023-01-08T00:50:16;3.70;;;1.83;;
47335;SDS011;33068;51.990;5.926;2023-01-08T00:52:43;4.15;;;2.10;;
47335;SDS011;33068;51.990;5.926;2023-01-08T00:55:12;6.05;;;2.70;;
47335;SDS011;33068;51.990;5.926;2023-01-08T00:57:40;3.75;;;1.75;;
47335;SDS011;33068;51.990;5.926;2023-01-08T01:00:07;6.50;;;2.65;;
47335;SDS011;33068;51.990;5.926;2023-01-08T01:02:37;3.15;;;1.98;;
47335;SDS011;33068;51.990;5.926;2023-01-08T01:05:06;3.22;;;1.45;;
47335;SDS011;33068;51.990;5.926;2023-01-08T01:07:36;5.03;;;1.85;;
47335;SDS011;33068;51.990;5.926;2023-01-08T01:10:03;5.30;;;1.90;;
47335;SDS011;33068;51.990;5.926;2023-01-08T01:12:31;4.88;;;2.38;;
47335;SDS011;33068;51.990;5.926;2023-01-08T01:14:59;7.20;;;2.83;;
47335;SDS011;33068;51.990;5.926;2023-01-08T01:17:26;4.28;;;1.77;;
47335;SDS011;33068;51.990;5.926;2023-01-08T01:19:53;4.03;;;1.38;;
47335;SDS011;33068;51.990;5.926;2023-01-08T01:22:20;4.55;;;2.10;;
47335;SDS011;33068;51.990;5.926;2023-01-08T01:24:48;3.90;;;2.00;;
47335;SDS011;33068;51.990;5.926;2023-01-08T01:27:15;5.25;;;1.85;;
47335;SDS011;33068;51.990;5.926;2023-01-08T01:29:45;3.75;;;2.05;;
47335;SDS011;33068;51.990;5.926;2023-01-08T01:32:12;4.72;;;2.47;;
47335;SDS011;33068;51.990;5.926;2023-01-08T01:34:39;5.18;;;2.45;;
47335;SDS011;33068;51.990;5.926;2023-01-08T01:37:07;4.53;;;2.20;;
47335;SDS011;33068;51.990;5.926;2023-01-08T01:39:38;4.45;;;2.20;;
47335;SDS011;33068;51.990;5.926;2023-01-08T01:42:08;9.60;;;2.28;;
47335;SDS011;33068;51.990;5.926;2023-01-08T01:44:58;7.38;;;2.30;;
47335;SDS011;33068;51.990;5.926;2023-01-08T01:47:27;7.60;;;2.83;;
47335;SDS011;33068;51.990;5.926;2023-01-08T01:49:58;3.30;;;1.80;;
47335;SDS011;33068;51.990;5.926;2023-01-08T01:52:29;6.00;;;2.03;;
47335;SDS011;33068;51.990;5.926;2023-01-08T01:54:58;4.57;;;2.33;;
47335;SDS011;33068;51.990;5.926;2023-01-08T01:57:30;7.05;;;2.33;;
47335;SDS011;33068;51.990;5.926;2023-01-08T01:59:59;5.97;;;1.65;;
47335;SDS011;33068;51.990;5.926;2023-01-08T02:02:37;5.03;;;2.17;;
47335;SDS011;33068;51.990;5.926;2023-01-08T02:05:04;7.30;;;2.15;;
47335;SDS011;33068;51.990;5.926;2023-01-08T02:07:34;10.65;;;2.65;;
47335;SDS011;33068;51.990;5.926;2023-01-08T02:10:08;4.10;;;2.03;;
47335;SDS011;33068;51.990;5.926;2023-01-08T02:12:40;4.13;;;1.85;;
47335;SDS011;33068;51.990;5.926;2023-01-08T02:15:12;7.88;;;2.42;;
47335;SDS011;33068;51.990;5.926;2023-01-08T02:17:43;6.55;;;1.90;;
47335;SDS011;33068;51.990;5.926;2023-01-08T02:20:16;3.85;;;2.15;;
47335;SDS011;33068;51.990;5.926;2023-01-08T02:25:39;5.40;;;1.42;;
47335;SDS011;33068;51.990;5.926;2023-01-08T02:28:40;6.25;;;2.53;;
47335;SDS011;33068;51.990;5.926;2023-01-08T02:31:11;4.72;;;1.70;;
47335;SDS011;33068;51.990;5.926;2023-01-08T02:33:39;5.82;;;1.98;;
47335;SDS011;33068;51.990;5.926;2023-01-08T02:36:14;6.30;;;1.98;;
47335;SDS011;33068;51.990;5.926;2023-01-08T02:39:01;8.30;;;2.22;;
47335;SDS011;33068;51.990;5.926;2023-01-08T02:41:39;5.88;;;2.03;;
47335;SDS011;33068;51.990;5.926;2023-01-08T02:44:30;5.30;;;1.52;;
47335;SDS011;33068;51.990;5.926;2023-01-08T02:47:05;4.10;;;2.45;;
47335;SDS011;33068;51.990;5.926;2023-01-08T02:49:37;8.55;;;1.95;;
47335;SDS011;33068;51.990;5.926;2023-01-08T02:52:09;6.18;;;1.95;;
47335;SDS011;33068;51.990;5.926;2023-01-08T02:54:38;3.17;;;2.00;;
47335;SDS011;33068;51.990;5.926;2023-01-08T02:57:10;3.88;;;2.03;;
47335;SDS011;33068;51.990;5.926;2023-01-08T02:59:41;3.20;;;1.73;;
47335;SDS011;33068;51.990;5.926;2023-01-08T03:02:10;3.05;;;1.42;;
47335;SDS011;33068;51.990;5.926;2023-01-08T03:04:39;5.15;;;2.28;;
47335;SDS011;33068;51.990;5.926;2023-01-08T03:07:11;4.45;;;1.60;;
47335;SDS011;33068;51.990;5.926;2023-01-08T03:09:39;5.28;;;1.50;;
47335;SDS011;33068;51.990;5.926;2023-01-08T03:12:08;2.92;;;1.20;;
47335;SDS011;33068;51.990;5.926;2023-01-08T03:14:42;4.82;;;0.98;;
47335;SDS011;33068;51.990;5.926;2023-01-08T03:17:19;3.42;;;1.15;;
47335;SDS011;33068;51.990;5.926;2023-01-08T03:19:51;1.95;;;0.80;;
47335;SDS011;33068;51.990;5.926;2023-01-08T03:22:22;3.33;;;0.60;;
47335;SDS011;33068;51.990;5.926;2023-01-08T03:24:50;2.53;;;0.70;;
47335;SDS011;33068;51.990;5.926;2023-01-08T03:27:21;7.97;;;0.63;;
47335;SDS011;33068;51.990;5.926;2023-01-08T03:29:54;5.70;;;0.50;;
47335;SDS011;33068;51.990;5.926;2023-01-08T03:32:23;2.28;;;0.55;;
47335;SDS011;33068;51.990;5.926;2023-01-08T03:34:55;3.08;;;0.50;;
47335;SDS011;33068;51.990;5.926;2023-01-08T03:37:28;2.38;;;0.65;;
47335;SDS011;33068;51.990;5.926;2023-01-08T03:40:04;3.60;;;0.50;;
47335;SDS011;33068;51.990;5.926;2023-01-08T03:42:36;2.97;;;0.50;;
47335;SDS011;33068;51.990;5.926;2023-01-08T03:45:20;3.17;;;1.02;;
47335;SDS011;33068;51.990;5.926;2023-01-08T03:47:48;4.38;;;0.60;;
47335;SDS011;33068;51.990;5.926;2023-01-08T03:50:18;2.13;;;0.40;;
47335;SDS011;33068;51.990;5.926;2023-01-08T03:52:49;6.90;;;0.60;;
47335;SDS011;33068;51.990;5.926;2023-01-08T03:55:17;3.00;;;0.40;;
47335;SDS011;33068;51.990;5.926;2023-01-08T03:57:44;7.90;;;0.98;;
47335;SDS011;33068;51.990;5.926;2023-01-08T04:00:14;4.43;;;0.60;;
47335;SDS011;33068;51.990;5.926;2023-01-08T04:06:50;2.00;;;0.40;;
47335;SDS011;33068;51.990;5.926;2023-01-08T04:12:34;4.35;;;0.40;;
47335;SDS011;33068;51.990;5.926;2023-01-08T04:15:27;1.73;;;0.43;;
47335;SDS011;33068;51.990;5.926;2023-01-08T04:25:29;3.33;;;0.88;;
47335;SDS011;33068;51.990;5.926;2023-01-08T04:28:25;4.75;;;0.40;;
47335;SDS011;33068;51.990;5.926;2023-01-08T04:31:10;3.83;;;0.60;;
47335;SDS011;33068;51.990;5.926;2023-01-08T04:33:53;5.75;;;0.80;;
47335;SDS011;33068;51.990;5.926;2023-01-08T04:36:38;8.80;;;0.98;;
47335;SDS011;33068;51.990;5.926;2023-01-08T04:39:29;2.72;;;0.50;;
47335;SDS011;33068;51.990;5.926;2023-01-08T04:42:13;5.07;;;0.50;;
47335;SDS011;33068;51.990;5.926;2023-01-08T04:44:51;5.68;;;0.52;;
47335;SDS011;33068;51.990;5.926;2023-01-08T04:47:20;3.05;;;0.45;;
47335;SDS011;33068;51.990;5.926;2023-01-08T04:49:47;5.38;;;0.60;;
47335;SDS011;33068;51.990;5.926;2023-01-08T04:52:17;4.82;;;0.40;;
47335;SDS011;33068;51.990;5.926;2023-01-08T04:54:44;8.50;;;0.52;;
47335;SDS011;33068;51.990;5.926;2023-01-08T04:57:14;9.40;;;0.88;;
47335;SDS011;33068;51.990;5.926;2023-01-08T04:59:47;2.25;;;0.60;;
47335;SDS011;33068;51.990;5.926;2023-01-08T05:02:19;5.55;;;0.40;;
47335;SDS011;33068;51.990;5.926;2023-01-08T05:04:53;2.72;;;0.65;;
47335;SDS011;33068;51.990;5.926;2023-01-08T05:07:20;5.95;;;1.10;;
47335;SDS011;33068;51.990;5.926;2023-01-08T05:09:48;4.32;;;0.50;;
47335;SDS011;33068;51.990;5.926;2023-01-08T05:12:19;5.90;;;0.40;;
47335;SDS011;33068;51.990;5.926;2023-01-08T05:14:46;3.28;;;0.55;;
47335;SDS011;33068;51.990;5.926;2023-01-08T05:17:13;5.78;;;0.82;;
47335;SDS011;33068;51.990;5.926;2023-01-08T05:19:43;4.57;;;0.70;;
47335;SDS011;33068;51.990;5.926;2023-01-08T05:22:10;4.25;;;0.40;;
47335;SDS011;33068;51.990;5.926;2023-01-08T05:24:42;4.07;;;0.40;;
47335;SDS011;33068;51.990;5.926;2023-01-08T05:27:09;4.85;;;0.52;;
47335;SDS011;33068;51.990;5.926;2023-01-08T05:29:41;3.97;;;0.50;;
47335;SDS011;33068;51.990;5.926;2023-01-08T05:32:08;3.92;;;0.43;;
47335;SDS011;33068;51.990;5.926;2023-01-08T05:34:42;2.50;;;0.50;;
47335;SDS011;33068;51.990;5.926;2023-01-08T05:37:16;2.17;;;0.40;;
47335;SDS011;33068;51.990;5.926;2023-01-08T05:39:46;6.53;;;0.88;;
47335;SDS011;33068;51.990;5.926;2023-01-08T05:42:13;5.95;;;0.60;;
47335;SDS011;33068;51.990;5.926;2023-01-08T05:44:43;4.82;;;0.70;;
47335;SDS011;33068;51.990;5.926;2023-01-08T05:47:10;5.25;;;1.00;;
47335;SDS011;33068;51.990;5.926;2023-01-08T05:49:40;4.15;;;0.80;;
47335;SDS011;33068;51.990;5.926;2023-01-08T05:52:07;6.63;;;0.65;;
47335;SDS011;33068;51.990;5.926;2023-01-08T05:54:34;5.28;;;1.25;;
47335;SDS011;33068;51.990;5.926;2023-01-08T05:57:01;5.78;;;0.98;;
47335;SDS011;33068;51.990;5.926;2023-01-08T05:59:31;5.18;;;0.80;;
47335;SDS011;33068;51.990;5.926;2023-01-08T06:02:00;2.40;;;0.70;;
47335;SDS011;33068;51.990;5.926;2023-01-08T06:04:27;4.43;;;0.60;;
47335;SDS011;33068;51.990;5.926;2023-01-08T06:06:54;3.47;;;0.70;;
47335;SDS011;33068;51.990;5.926;2023-01-08T06:09:21;1.65;;;0.40;;
47335;SDS011;33068;51.990;5.926;2023-01-08T06:11:48;4.85;;;1.17;;
47335;SDS011;33068;51.990;5.926;2023-01-08T06:14:17;3.03;;;0.70;;
47335;SDS011;33068;51.990;5.926;2023-01-08T06:16:44;5.43;;;0.80;;
47335;SDS011;33068;51.990;5.926;2023-01-08T06:19:13;4.90;;;1.00;;
47335;SDS011;33068;51.990;5.926;2023-01-08T06:21:40;2.58;;;0.63;;
47335;SDS011;33068;51.990;5.926;2023-01-08T06:24:07;1.95;;;0.77;;
47335;SDS011;33068;51.990;5.926;2023-01-08T06:26:35;3.90;;;1.02;;
47335;SDS011;33068;51.990;5.926;2023-01-08T06:29:02;1.42;;;0.40;;
47335;SDS011;33068;51.990;5.926;2023-01-08T06:31:29;3.75;;;0.63;;
47335;SDS011;33068;51.990;5.926;2023-01-08T06:33:59;4.53;;;0.50;;
47335;SDS011;33068;51.990;5.926;2023-01-08T06:36:27;1.40;;;0.45;;
47335;SDS011;33068;51.990;5.926;2023-01-08T06:38:55;3.72;;;0.60;;
47335;SDS011;33068;51.990;5.926;2023-01-08T06:41:22;3.60;;;0.40;;
47335;SDS011;33068;51.990;5.926;2023-01-08T06:43:49;4.95;;;0.55;;
47335;SDS011;33068;51.990;5.926;2023-01-08T06:46:16;1.83;;;0.40;;
47335;SDS011;33068;51.990;5.926;2023-01-08T06:48:43;2.85;;;0.65;;
47335;SDS011;33068;51.990;5.926;2023-01-08T06:51:10;6.75;;;0.85;;
47335;SDS011;33068;51.990;5.926;2023-01-08T06:53:39;4.30;;;0.60;;
47335;SDS011;33068;51.990;5.926;2023-01-08T06:56:06;3.00;;;0.50;;
47335;SDS011;33068;51.990;5.926;2023-01-08T06:58:36;9.07;;;0.70;;
47335;SDS011;33068;51.990;5.926;2023-01-08T07:01:03;5.47;;;0.75;;
47335;SDS011;33068;51.990;5.926;2023-01-08T07:03:31;5.20;;;0.45;;
47335;SDS011;33068;51.990;5.926;2023-01-08T07:06:00;2.55;;;0.60;;
47335;SDS011;33068;51.990;5.926;2023-01-08T07:08:28;3.95;;;0.68;;
47335;SDS011;33068;51.990;5.926;2023-01-08T07:11:00;4.35;;;0.73;;
47335;SDS011;33068;51.990;5.926;2023-01-08T07:13:27;5.25;;;0.70;;
47335;SDS011;33068;51.990;5.926;2023-01-08T07:15:55;3.72;;;0.60;;
47335;SDS011;33068;51.990;5.926;2023-01-08T07:18:22;4.65;;;0.70;;
47335;SDS011;33068;51.990;5.926;2023-01-08T07:20:49;5.47;;;0.65;;
47335;SDS011;33068;51.990;5.926;2023-01-08T07:23:16;4.88;;;0.45;;
47335;SDS011;33068;51.990;5.926;2023-01-08T07:25:43;4.22;;;0.70;;
47335;SDS011;33068;51.990;5.926;2023-01-08T07:28:12;2.40;;;0.35;;
47335;SDS011;33068;51.990;5.926;2023-01-08T07:30:39;3.97;;;0.57;;
47335;SDS011;33068;51.990;5.926;2023-01-08T07:33:07;4.57;;;0.50;;
47335;SDS011;33068;51.990;5.926;2023-01-08T07:35:34;3.63;;;1.00;;
47335;SDS011;33068;51.990;5.926;2023-01-08T07:38:03;8.88;;;0.80;;
47335;SDS011;33068;51.990;5.926;2023-01-08T07:40:30;5.78;;;0.70;;
47335;SDS011;33068;51.990;5.926;2023-01-08T07:42:57;7.18;;;0.70;;
47335;SDS011;33068;51.990;5.926;2023-01-08T07:45:26;5.25;;;0.60;;
47335;SDS011;33068;51.990;5.926;2023-01-08T07:47:55;5.07;;;0.70;;
47335;SDS011;33068;51.990;5.926;2023-01-08T07:50:23;4.03;;;0.73;;
47335;SDS011;33068;51.990;5.926;2023-01-08T07:52:50;10.50;;;1.00;;
47335;SDS011;33068;51.990;5.926;2023-01-08T07:55:17;10.65;;;1.08;;
47335;SDS011;33068;51.990;5.926;2023-01-08T07:57:44;7.57;;;1.40;;
47335;SDS011;33068;51.990;5.926;2023-01-08T08:00:12;5.82;;;0.80;;
47335;SDS011;33068;51.990;5.926;2023-01-08T08:02:41;7.22;;;0.70;;
47335;SDS011;33068;51.990;5.926;2023-01-08T08:05:08;4.68;;;0.60;;
47335;SDS011;33068;51.990;5.926;2023-01-08T08:07:35;6.15;;;0.88;;
47335;SDS011;33068;51.990;5.926;2023-01-08T08:10:03;8.02;;;1.13;;
47335;SDS011;33068;51.990;5.926;2023-01-08T08:12:30;5.53;;;0.45;;
47335;SDS011;33068;51.990;5.926;2023-01-08T08:14:58;6.47;;;0.70;;
47335;SDS011;33068;51.990;5.926;2023-01-08T08:17:25;4.00;;;0.70;;
47335;SDS011;33068;51.990;5.926;2023-01-08T08:19:53;5.40;;;0.50;;
47335;SDS011;33068;51.990;5.926;2023-01-08T08:22:20;4.22;;;0.80;;
47335;SDS011;33068;51.990;5.926;2023-01-08T08:24:47;7.28;;;0.77;;
47335;SDS011;33068;51.990;5.926;2023-01-08T08:27:15;9.75;;;1.00;;
47335;SDS011;33068;51.990;5.926;2023-01-08T08:29:42;4.35;;;0.68;;
47335;SDS011;33068;51.990;5.926;2023-01-08T08:32:11;6.88;;;0.80;;
47335;SDS011;33068;51.990;5.926;2023-01-08T08:34:39;5.15;;;0.80;;
47335;SDS011;33068;51.990;5.926;2023-01-08T08:37:07;2.92;;;0.80;;
47335;SDS011;33068;51.990;5.926;2023-01-08T08:39:35;9.02;;;0.52;;
47335;SDS011;33068;51.990;5.926;2023-01-08T08:42:03;10.00;;;1.17;;
47335;SDS011;33068;51.990;5.926;2023-01-08T08:44:30;6.07;;;0.65;;
47335;SDS011;33068;51.990;5.926;2023-01-08T08:46:57;6.90;;;0.60;;
47335;SDS011;33068;51.990;5.926;2023-01-08T08:49:27;11.68;;;0.85;;
47335;SDS011;33068;51.990;5.926;2023-01-08T08:51:54;7.15;;;0.60;;
47335;SDS011;33068;51.990;5.926;2023-01-08T08:54:23;12.00;;;0.93;;
47335;SDS011;33068;51.990;5.926;2023-01-08T08:56:50;9.45;;;0.73;;
47335;SDS011;33068;51.990;5.926;2023-01-08T08:59:17;4.00;;;0.60;;
47335;SDS011;33068;51.990;5.926;2023-01-08T09:01:44;4.15;;;0.50;;
47335;SDS011;33068;51.990;5.926;2023-01-08T09:04:11;10.20;;;0.63;;
47335;SDS011;33068;51.990;5.926;2023-01-08T09:06:38;5.75;;;0.65;;
47335;SDS011;33068;51.990;5.926;2023-01-08T09:09:05;13.30;;;0.73;;
47335;SDS011;33068;51.990;5.926;2023-01-08T09:11:36;14.15;;;1.00;;
47335;SDS011;33068;51.990;5.926;2023-01-08T09:14:03;7.85;;;0.80;;
47335;SDS011;33068;51.990;5.926;2023-01-08T09:16:30;7.10;;;0.90;;
47335;SDS011;33068;51.990;5.926;2023-01-08T09:18:57;10.50;;;0.88;;
47335;SDS011;33068;51.990;5.926;2023-01-08T09:21:25;9.05;;;0.63;;
47335;SDS011;33068;51.990;5.926;2023-01-08T09:23:52;6.00;;;0.57;;
47335;SDS011;33068;51.990;5.926;2023-01-08T09:26:20;11.45;;;1.15;;
47335;SDS011;33068;51.990;5.926;2023-01-08T09:28:48;9.63;;;0.80;;
47335;SDS011;33068;51.990;5.926;2023-01-08T09:31:15;7.47;;;0.70;;
47335;SDS011;33068;51.990;5.926;2023-01-08T09:33:43;5.07;;;0.40;;
47335;SDS011;33068;51.990;5.926;2023-01-08T09:36:14;6.47;;;0.90;;
47335;SDS011;33068;51.990;5.926;2023-01-08T09:38:41;7.35;;;0.60;;
47335;SDS011;33068;51.990;5.926;2023-01-08T09:41:09;9.38;;;0.93;;
47335;SDS011;33068;51.990;5.926;2023-01-08T09:43:41;9.65;;;0.98;;
47335;SDS011;33068;51.990;5.926;2023-01-08T09:46:11;13.98;;;1.38;;
47335;SDS011;33068;51.990;5.926;2023-01-08T09:48:41;9.68;;;0.50;;
47335;SDS011;33068;51.990;5.926;2023-01-08T09:51:08;7.43;;;0.90;;
47335;SDS011;33068;51.990;5.926;2023-01-08T09:53:37;10.20;;;0.88;;
47335;SDS011;33068;51.990;5.926;2023-01-08T09:56:08;9.95;;;0.75;;
47335;SDS011;33068;51.990;5.926;2023-01-08T09:58:39;7.00;;;0.65;;
47335;SDS011;33068;51.990;5.926;2023-01-08T10:01:09;6.13;;;0.70;;
47335;SDS011;33068;51.990;5.926;2023-01-08T10:03:40;15.25;;;1.42;;
47335;SDS011;33068;51.990;5.926;2023-01-08T10:06:11;8.75;;;0.85;;
47335;SDS011;33068;51.990;5.926;2023-01-08T10:08:40;5.72;;;0.60;;
47335;SDS011;33068;51.990;5.926;2023-01-08T10:11:08;5.95;;;0.63;;
47335;SDS011;33068;51.990;5.926;2023-01-08T10:13:36;8.45;;;0.98;;
47335;SDS011;33068;51.990;5.926;2023-01-08T10:16:06;10.45;;;1.23;;
47335;SDS011;33068;51.990;5.926;2023-01-08T10:18:36;11.52;;;1.00;;
47335;SDS011;33068;51.990;5.926;2023-01-08T10:21:05;9.15;;;1.10;;
47335;SDS011;33068;51.990;5.926;2023-01-08T10:23:47;12.60;;;1.17;;
47335;SDS011;33068;51.990;5.926;2023-01-08T10:28:50;4.43;;;0.70;;
47335;SDS011;33068;51.990;5.926;2023-01-08T10:31:17;9.32;;;0.75;;
47335;SDS011;33068;51.990;5.926;2023-01-08T10:33:46;7.88;;;0.77;;
47335;SDS011;33068;51.990;5.926;2023-01-08T10:36:15;8.85;;;0.90;;
47335;SDS011;33068;51.990;5.926;2023-01-08T10:38:47;10.38;;;1.02;;
47335;SDS011;33068;51.990;5.926;2023-01-08T10:41:16;4.55;;;0.90;;
47335;SDS011;33068;51.990;5.926;2023-01-08T10:43:46;5.35;;;0.80;;
47335;SDS011;33068;51.990;5.926;2023-01-08T10:46:20;3.47;;;0.97;;
47335;SDS011;33068;51.990;5.926;2023-01-08T10:48:51;6.05;;;0.82;;
47335;SDS011;33068;51.990;5.926;2023-01-08T10:51:22;5.70;;;1.23;;
47335;SDS011;33068;51.990;5.926;2023-01-08T10:53:50;6.90;;;0.98;;
47335;SDS011;33068;51.990;5.926;2023-01-08T10:56:19;7.90;;;0.90;;
47335;SDS011;33068;51.990;5.926;2023-01-08T10:58:48;11.18;;;1.10;;
47335;SDS011;33068;51.990;5.926;2023-01-08T11:01:16;5.38;;;0.82;;
47335;SDS011;33068;51.990;5.926;2023-01-08T11:03:48;10.50;;;0.65;;
47335;SDS011;33068;51.990;5.926;2023-01-08T11:06:19;9.43;;;1.17;;
47335;SDS011;33068;51.990;5.926;2023-01-08T11:08:51;8.55;;;0.70;;
47335;SDS011;33068;51.990;5.926;2023-01-08T11:11:20;4.93;;;0.90;;
47335;SDS011;33068;51.990;5.926;2023-01-08T11:13:50;6.63;;;0.80;;
47335;SDS011;33068;51.990;5.926;2023-01-08T11:16:29;4.22;;;0.70;;
47335;SDS011;33068;51.990;5.926;2023-01-08T11:18:57;5.75;;;0.80;;
47335;SDS011;33068;51.990;5.926;2023-01-08T11:21:28;8.70;;;0.75;;
47335;SDS011;33068;51.990;5.926;2023-01-08T11:24:02;5.28;;;1.08;;
47335;SDS011;33068;51.990;5.926;2023-01-08T11:26:41;3.15;;;0.70;;
47335;SDS011;33068;51.990;5.926;2023-01-08T11:29:13;8.32;;;1.38;;
47335;SDS011;33068;51.990;5.926;2023-01-08T11:31:43;10.80;;;1.20;;
47335;SDS011;33068;51.990;5.926;2023-01-08T11:34:17;5.07;;;0.80;;
47335;SDS011;33068;51.990;5.926;2023-01-08T11:36:51;5.30;;;0.73;;
47335;SDS011;33068;51.990;5.926;2023-01-08T11:39:25;5.53;;;0.93;;
47335;SDS011;33068;51.990;5.926;2023-01-08T11:44:50;4.88;;;1.00;;
47335;SDS011;33068;51.990;5.926;2023-01-08T11:47:29;7.07;;;0.70;;
47335;SDS011;33068;51.990;5.926;2023-01-08T11:50:12;2.70;;;0.70;;
47335;SDS011;33068;51.990;5.926;2023-01-08T11:52:51;3.90;;;0.60;;
47335;SDS011;33068;51.990;5.926;2023-01-08T11:55:35;9.25;;;1.38;;
47335;SDS011;33068;51.990;5.926;2023-01-08T11:58:17;4.72;;;0.68;;
47335;SDS011;33068;51.990;5.926;2023-01-08T12:00:54;4.30;;;0.90;;
47335;SDS011;33068;51.990;5.926;2023-01-08T12:03:29;4.53;;;0.70;;
47335;SDS011;33068;51.990;5.926;2023-01-08T12:09:07;8.00;;;0.60;;
47335;SDS011;33068;51.990;5.926;2023-01-08T12:11:45;4.35;;;0.98;;
47335;SDS011;33068;51.990;5.926;2023-01-08T12:14:20;3.40;;;0.73;;
47335;SDS011;33068;51.990;5.926;2023-01-08T12:17:07;4.05;;;0.40;;
47335;SDS011;33068;51.990;5.926;2023-01-08T12:19:54;2.03;;;0.35;;
47335;SDS011;33068;51.990;5.926;2023-01-08T12:22:36;3.28;;;0.50;;
47335;SDS011;33068;51.990;5.926;2023-01-08T12:25:19;1.38;;;0.30;;
47335;SDS011;33068;51.990;5.926;2023-01-08T12:27:55;4.18;;;0.22;;
47335;SDS011;33068;51.990;5.926;2023-01-08T12:30:31;1.98;;;0.40;;
47335;SDS011;33068;51.990;5.926;2023-01-08T12:33:10;2.08;;;0.40;;
47335;SDS011;33068;51.990;5.926;2023-01-08T12:35:41;3.65;;;0.30;;
47335;SDS011;33068;51.990;5.926;2023-01-08T12:38:12;3.10;;;0.30;;
47335;SDS011;33068;51.990;5.926;2023-01-08T12:40:46;1.95;;;0.22;;
47335;SDS011;33068;51.990;5.926;2023-01-08T12:43:17;2.33;;;0.30;;
47335;SDS011;33068;51.990;5.926;2023-01-08T12:45:49;0.98;;;0.30;;
47335;SDS011;33068;51.990;5.926;2023-01-08T12:48:19;2.50;;;0.40;;
47335;SDS011;33068;51.990;5.926;2023-01-08T12:50:56;0.40;;;0.20;;
47335;SDS011;33068;51.990;5.926;2023-01-08T12:53:33;0.85;;;0.20;;
47335;SDS011;33068;51.990;5.926;2023-01-08T12:56:09;1.10;;;0.20;;
47335;SDS011;33068;51.990;5.926;2023-01-08T12:58:52;2.47;;;0.20;;
47335;SDS011;33068;51.990;5.926;2023-01-08T13:01:34;2.00;;;0.35;;
47335;SDS011;33068;51.990;5.926;2023-01-08T13:04:08;0.50;;;0.20;;
47335;SDS011;33068;51.990;5.926;2023-01-08T13:06:37;1.17;;;0.30;;
47335;SDS011;33068;51.990;5.926;2023-01-08T13:09:15;1.38;;;0.45;;
47335;SDS011;33068;51.990;5.926;2023-01-08T13:11:51;1.90;;;0.20;;
47335;SDS011;33068;51.990;5.926;2023-01-08T13:14:20;2.65;;;0.30;;
47335;SDS011;33068;51.990;5.926;2023-01-08T13:16:59;1.15;;;0.50;;
47335;SDS011;33068;51.990;5.926;2023-01-08T13:19:29;2.05;;;0.40;;
47335;SDS011;33068;51.990;5.926;2023-01-08T13:22:00;2.47;;;0.38;;
47335;SDS011;33068;51.990;5.926;2023-01-08T13:24:31;2.15;;;0.30;;
47335;SDS011;33068;51.990;5.926;2023-01-08T13:27:11;1.42;;;0.20;;
47335;SDS011;33068;51.990;5.926;2023-01-08T13:29:52;1.67;;;0.32;;
47335;SDS011;33068;51.990;5.926;2023-01-08T13:32:23;2.35;;;0.45;;
47335;SDS011;33068;51.990;5.926;2023-01-08T13:35:08;4.10;;;0.63;;
47335;SDS011;33068;51.990;5.926;2023-01-08T13:37:47;0.68;;;0.22;;
47335;SDS011;33068;51.990;5.926;2023-01-08T13:40:35;3.17;;;0.40;;
47335;SDS011;33068;51.990;5.926;2023-01-08T13:43:05;3.15;;;0.75;;
47335;SDS011;33068;51.990;5.926;2023-01-08T13:45:38;3.58;;;0.50;;
47335;SDS011;33068;51.990;5.926;2023-01-08T13:48:17;1.88;;;0.30;;
47335;SDS011;33068;51.990;5.926;2023-01-08T13:50:47;4.28;;;0.50;;
47335;SDS011;33068;51.990;5.926;2023-01-08T13:53:14;4.07;;;0.57;;
47335;SDS011;33068;51.990;5.926;2023-01-08T13:55:42;1.65;;;0.50;;
47335;SDS011;33068;51.990;5.926;2023-01-08T13:58:22;6.05;;;0.60;;
47335;SDS011;33068;51.990;5.926;2023-01-08T14:00:51;3.42;;;0.30;;
47335;SDS011;33068;51.990;5.926;2023-01-08T14:03:21;2.53;;;0.55;;
47335;SDS011;33068;51.990;5.926;2023-01-08T14:05:48;5.07;;;0.90;;
47335;SDS011;33068;51.990;5.926;2023-01-08T14:08:23;4.35;;;0.60;;
47335;SDS011;33068;51.990;5.926;2023-01-08T14:10:51;3.05;;;0.43;;
47335;SDS011;33068;51.990;5.926;2023-01-08T14:13:21;7.85;;;0.57;;
47335;SDS011;33068;51.990;5.926;2023-01-08T14:15:52;4.82;;;0.32;;
47335;SDS011;33068;51.990;5.926;2023-01-08T14:18:22;2.55;;;0.28;;
47335;SDS011;33068;51.990;5.926;2023-01-08T14:20:50;2.65;;;0.40;;
47335;SDS011;33068;51.990;5.926;2023-01-08T14:23:18;3.80;;;0.73;;
47335;SDS011;33068;51.990;5.926;2023-01-08T14:25:49;1.13;;;0.25;;
47335;SDS011;33068;51.990;5.926;2023-01-08T14:28:18;3.47;;;0.55;;
47335;SDS011;33068;51.990;5.926;2023-01-08T14:30:48;7.20;;;0.55;;
47335;SDS011;33068;51.990;5.926;2023-01-08T14:33:18;5.05;;;0.60;;
47335;SDS011;33068;51.990;5.926;2023-01-08T14:35:49;3.03;;;0.50;;
47335;SDS011;33068;51.990;5.926;2023-01-08T14:38:17;8.13;;;0.70;;
47335;SDS011;33068;51.990;5.926;2023-01-08T14:40:45;6.15;;;0.82;;
47335;SDS011;33068;51.990;5.926;2023-01-08T14:43:16;3.78;;;0.50;;
47335;SDS011;33068;51.990;5.926;2023-01-08T14:45:45;6.18;;;2.13;;
47335;SDS011;33068;51.990;5.926;2023-01-08T14:48:20;5.78;;;2.15;;
47335;SDS011;33068;51.990;5.926;2023-01-08T14:50:59;6.05;;;1.83;;
47335;SDS011;33068;51.990;5.926;2023-01-08T14:53:30;7.05;;;1.45;;
47335;SDS011;33068;51.990;5.926;2023-01-08T14:56:00;8.23;;;2.22;;
47335;SDS011;33068;51.990;5.926;2023-01-08T14:58:33;6.63;;;1.67;;
47335;SDS011;33068;51.990;5.926;2023-01-08T15:01:04;3.55;;;0.88;;
47335;SDS011;33068;51.990;5.926;2023-01-08T15:03:36;3.40;;;1.45;;
47335;SDS011;33068;51.990;5.926;2023-01-08T15:06:05;7.50;;;0.90;;
47335;SDS011;33068;51.990;5.926;2023-01-08T15:08:36;5.57;;;0.60;;
47335;SDS011;33068;51.990;5.926;2023-01-08T15:11:04;2.10;;;0.90;;
47335;SDS011;33068;51.990;5.926;2023-01-08T15:13:39;4.05;;;0.82;;
47335;SDS011;33068;51.990;5.926;2023-01-08T15:16:07;7.40;;;1.48;;
47335;SDS011;33068;51.990;5.926;2023-01-08T15:18:43;6.72;;;1.58;;
47335;SDS011;33068;51.990;5.926;2023-01-08T15:21:15;8.52;;;1.38;;
47335;SDS011;33068;51.990;5.926;2023-01-08T15:23:45;5.15;;;1.42;;
47335;SDS011;33068;51.990;5.926;2023-01-08T15:26:14;8.00;;;1.60;;
47335;SDS011;33068;51.990;5.926;2023-01-08T15:28:47;7.72;;;1.17;;
47335;SDS011;33068;51.990;5.926;2023-01-08T15:31:27;6.60;;;1.70;;
47335;SDS011;33068;51.990;5.926;2023-01-08T15:33:57;12.18;;;2.90;;
47335;SDS011;33068;51.990;5.926;2023-01-08T15:36:25;6.40;;;1.38;;